Time;durP1;ratioP1;P1;durP2;ratioP2;P2;SDS_P1;SDS_P2;PMS_P1;PMS_P2;Temp;Humidity;BMP_temperature;BMP_pressure;BME280_temperature;BME280_humidity;BME280_pressure;Samples;Min_cycle;Max_cycle;Signal;HPM_P1;HPM_P2
2022/05/25 00:02:05;;;;;;;3.75;2.38;;;;;;;8.14;100.00;100246.88;5051322;28;20862;-72
2022/05/25 00:04:30;;;;;;;3.72;1.92;;;;;;;8.08;100.00;100229.66;5050698;28;20028;-73
2022/05/25 00:06:55;;;;;;;3.55;2.15;;;;;;;8.09;100.00;100231.38;5049337;28;20037;-72
2022/05/25 00:09:21;;;;;;;3.90;2.15;;;;;;;8.15;100.00;100249.41;5049862;28;20868;-72
2022/05/25 00:11:46;;;;;;;7.45;2.40;;;;;;;8.12;100.00;100244.31;5051832;28;20090;-73
2022/05/25 00:14:12;;;;;;;3.33;1.92;;;;;;;8.10;100.00;100247.91;5050034;28;20035;-73
2022/05/25 00:16:38;;;;;;;4.03;2.13;;;;;;;7.82;100.00;100214.22;5050034;28;20795;-74
2022/05/25 00:21:48;;;;;;;4.30;2.60;;;;;;;7.94;100.00;100250.31;5050870;28;20051;-73
2022/05/25 00:24:13;;;;;;;3.85;2.53;;;;;;;7.98;100.00;100264.97;5050933;28;20020;-73
2022/05/25 00:26:38;;;;;;;4.50;2.92;;;;;;;7.81;100.00;100233.44;5049170;28;20952;-74
2022/05/25 00:29:04;;;;;;;4.75;2.50;;;;;;;7.88;100.00;100254.94;5049682;28;20122;-73
2022/05/25 00:31:30;;;;;;;4.43;2.95;;;;;;;7.96;100.00;100264.19;5031990;28;20096;-73
2022/05/25 00:33:56;;;;;;;4.95;2.88;;;;;;;7.88;100.00;100250.56;5048198;28;20100;-73
2022/05/25 00:36:22;;;;;;;4.15;3.20;;;;;;;7.96;100.00;100263.34;5050605;28;20041;-73
2022/05/25 00:38:47;;;;;;;6.22;3.67;;;;;;;7.88;100.00;100255.81;5051146;28;20028;-73
2022/05/25 00:41:12;;;;;;;3.83;2.88;;;;;;;7.91;100.00;100266.13;5048172;28;20530;-73
2022/05/25 00:43:38;;;;;;;5.90;4.10;;;;;;;7.93;100.00;100263.47;5049715;28;20118;-73
2022/05/25 00:46:09;;;;;;;7.57;3.17;;;;;;;7.96;100.00;100287.75;5049804;28;20020;-73
2022/05/25 00:48:39;;;;;;;7.82;3.60;;;;;;;7.95;100.00;100283.41;5065003;28;20024;-72
2022/05/25 00:51:13;;;;;;;5.10;3.15;;;;;;;7.77;100.00;100273.72;5048494;28;20082;-74
2022/05/25 00:53:41;;;;;;;10.35;3.92;;;;;;;7.85;100.00;100274.25;5049916;28;20406;-74
2022/05/25 00:56:08;;;;;;;4.95;3.83;;;;;;;7.81;100.00;100270.03;5049761;28;20077;-74
2022/05/25 00:58:34;;;;;;;16.23;5.32;;;;;;;7.87;100.00;100268.97;5046171;28;20078;-74
2022/05/25 01:01:00;;;;;;;5.60;4.32;;;;;;;7.92;100.00;100273.09;5029396;28;20865;-73
2022/05/25 01:03:26;;;;;;;5.80;4.50;;;;;;;7.82;100.00;100245.59;5029501;28;20094;-73
2022/05/25 01:06:06;;;;;;;7.22;5.18;;;;;;;8.06;100.00;100283.84;5030491;28;20039;-73
2022/05/25 01:08:47;;;;;;;10.13;5.85;;;;;;;8.14;100.00;100286.97;5029284;28;20865;-72
2022/05/25 01:11:18;;;;;;;10.35;6.10;;;;;;;8.15;100.00;100291.28;5030349;28;20047;-72
2022/05/25 01:14:12;;;;;;;9.70;5.53;;;;;;;8.19;100.00;100292.88;5028673;28;20029;-73
2022/05/25 01:17:01;;;;;;;8.73;5.75;;;;;;;8.21;100.00;100288.41;5031066;28;20032;-73
2022/05/25 01:20:07;;;;;;;8.25;5.82;;;;;;;8.21;100.00;100291.03;5032095;28;20043;-72
2022/05/25 01:22:50;;;;;;;6.90;5.85;;;;;;;8.23;100.00;100291.81;5033317;28;20525;-73
2022/05/25 01:25:37;;;;;;;8.95;6.15;;;;;;;8.18;100.00;100291.16;5035022;28;20037;-72
2022/05/25 01:28:26;;;;;;;13.60;6.43;;;;;;;8.25;100.00;100290.94;5034824;28;20139;-73
2022/05/25 01:30:53;;;;;;;7.18;6.45;;;;;;;8.29;100.00;100306.44;5033057;28;20028;-72
2022/05/25 01:33:32;;;;;;;11.43;5.65;;;;;;;8.32;100.00;100292.38;5032428;28;20037;-72
2022/05/25 01:36:09;;;;;;;15.55;5.40;;;;;;;8.30;100.00;100294.22;5048095;28;20890;-73
2022/05/25 01:38:40;;;;;;;10.90;6.35;;;;;;;8.32;100.00;100294.97;5034148;28;20036;-72
2022/05/25 01:41:17;;;;;;;10.85;6.35;;;;;;;8.27;100.00;100294.31;5031771;28;20082;-73
2022/05/25 01:44:08;;;;;;;8.68;5.97;;;;;;;8.36;100.00;100304.41;5031319;28;20039;-73
2022/05/25 01:46:37;;;;;;;12.63;8.02;;;;;;;8.27;100.00;100294.31;5030369;28;20782;-74
2022/05/25 01:49:06;;;;;;;12.57;6.95;;;;;;;8.22;100.00;100287.50;5031631;28;20025;-73
2022/05/25 01:51:41;;;;;;;7.63;5.93;;;;;;;8.21;100.00;100295.44;5032419;28;20029;-73
2022/05/25 01:54:08;;;;;;;9.43;7.15;;;;;;;8.32;100.00;100313.31;5048041;28;20135;-73
2022/05/25 01:56:34;;;;;;;11.27;8.57;;;;;;;8.29;100.00;100313.44;5032888;28;20226;-75
2022/05/25 01:59:02;;;;;;;10.15;7.55;;;;;;;8.31;100.00;100316.88;5014461;28;20135;-73
2022/05/25 02:01:28;;;;;;;9.48;6.15;;;;;;;8.26;100.00;100318.78;5032838;28;20035;-72
2022/05/25 02:06:50;;;;;;;12.27;7.95;;;;;;;8.27;100.00;100316.09;5033649;28;20857;-72
2022/05/25 02:09:26;;;;;;;12.05;8.07;;;;;;;8.17;100.00;100305.19;5033705;28;20198;-72
2022/05/25 02:12:04;;;;;;;9.73;7.13;;;;;;;8.22;100.00;100318.91;5032051;28;20036;-73
2022/05/25 02:14:50;;;;;;;9.65;7.75;;;;;;;8.22;100.00;100318.91;5032877;28;20022;-73
2022/05/25 02:17:39;;;;;;;12.18;8.05;;;;;;;8.23;100.00;100319.75;5048685;28;20182;-72
2022/05/25 02:20:14;;;;;;;8.63;7.30;;;;;;;8.19;100.00;100315.56;5031916;28;20029;-72
2022/05/25 02:22:44;;;;;;;13.30;8.27;;;;;;;8.17;100.00;100320.88;5030604;28;20060;-73
2022/05/25 02:25:12;;;;;;;18.73;7.85;;;;;;;8.19;100.00;100334.75;5030707;28;20025;-72
2022/05/25 02:27:47;;;;;;;12.07;7.72;;;;;;;8.04;100.00;100311.81;5032303;28;20045;-72
2022/05/25 02:30:16;;;;;;;11.82;7.18;;;;;;;8.14;100.00;100336.69;5033065;28;20063;-72
2022/05/25 02:32:48;;;;;;;11.48;7.40;;;;;;;8.02;100.00;100316.25;5032258;28;20034;-72
2022/05/25 02:35:14;;;;;;;10.70;7.32;;;;;;;8.08;100.00;100336.94;5031898;28;20028;-71
2022/05/25 02:37:40;;;;;;;13.18;8.70;;;;;;;7.95;100.00;100320.03;5031655;28;20911;-72
2022/05/25 02:40:09;;;;;;;10.80;8.60;;;;;;;8.04;100.00;100340.59;5030732;28;20039;-72
2022/05/25 02:42:37;;;;;;;12.40;8.63;;;;;;;8.01;100.00;100335.47;5046584;28;20035;-73
2022/05/25 02:45:03;;;;;;;17.65;9.18;;;;;;;8.04;100.00;100335.34;5029056;28;20045;-73
2022/05/25 02:47:28;;;;;;;13.68;8.55;;;;;;;8.03;100.00;100336.28;5031082;28;21003;-73
2022/05/25 02:49:54;;;;;;;11.07;9.15;;;;;;;8.03;100.00;100341.53;5031037;28;21059;-72
2022/05/25 02:52:19;;;;;;;21.08;10.02;;;;;;;7.98;100.00;100335.63;5032202;28;20063;-73
2022/05/25 02:54:45;;;;;;;12.88;9.18;;;;;;;7.91;100.00;100330.72;5031037;28;20879;-72
2022/05/25 02:57:10;;;;;;;15.55;9.60;;;;;;;7.99;100.00;100350.41;5030975;28;20036;-72
2022/05/25 02:59:35;;;;;;;12.07;8.50;;;;;;;7.72;100.00;100312.28;5031635;28;20914;-72
2022/05/25 03:02:04;;;;;;;13.38;8.70;;;;;;;7.98;100.00;100351.31;5031476;28;20249;-72
2022/05/25 03:04:30;;;;;;;12.00;8.45;;;;;;;7.88;100.00;100331.66;5031157;28;20135;-71
2022/05/25 03:06:55;;;;;;;15.02;8.45;;;;;;;7.98;100.00;100353.94;5030659;28;20028;-71
2022/05/25 03:09:21;;;;;;;14.90;9.15;;;;;;;7.96;100.00;100358.38;5029576;28;20029;-71
2022/05/25 03:11:46;;;;;;;13.07;8.80;;;;;;;7.88;100.00;100349.97;5030511;28;20102;-71
2022/05/25 03:14:11;;;;;;;14.35;8.95;;;;;;;7.87;100.00;100353.53;5029882;28;20842;-71
2022/05/25 03:16:37;;;;;;;13.48;8.52;;;;;;;7.89;100.00;100356.06;5029543;28;20844;-71
2022/05/25 03:19:02;;;;;;;9.90;7.80;;;;;;;7.76;100.00;100342.63;5029845;28;20032;-71
2022/05/25 03:21:27;;;;;;;12.52;8.43;;;;;;;7.81;100.00;100358.97;5030100;28;20028;-71
2022/05/25 03:23:53;;;;;;;12.73;8.82;;;;;;;7.72;100.00;100346.28;5029035;28;20071;-70
2022/05/25 03:26:18;;;;;;;11.05;7.45;;;;;;;7.78;100.00;100353.88;5032587;28;20036;-71
2022/05/25 03:28:44;;;;;;;8.65;7.75;;;;;;;7.55;100.00;100336.47;5031634;28;20086;-72
2022/05/25 03:31:10;;;;;;;10.30;7.70;;;;;;;7.76;100.00;100350.47;5045986;28;20868;-71
2022/05/25 03:33:35;;;;;;;9.20;7.18;;;;;;;7.59;100.00;100330.22;5029545;28;20024;-71
2022/05/25 03:36:01;;;;;;;11.38;7.57;;;;;;;7.77;100.00;100373.13;5029500;28;20029;-72
2022/05/25 03:38:30;;;;;;;11.32;8.10;;;;;;;7.59;100.00;100351.13;5029343;28;20139;-71
2022/05/25 03:40:57;;;;;;;12.85;8.38;;;;;;;7.70;100.00;100362.00;5029797;28;20299;-71
2022/05/25 03:43:27;;;;;;;14.63;8.48;;;;;;;7.79;100.00;100386.13;5028044;28;20032;-71
2022/05/25 03:45:52;;;;;;;13.55;9.10;;;;;;;7.74;100.00;100373.19;5029165;28;20829;-71
2022/05/25 03:48:18;;;;;;;12.13;7.88;;;;;;;7.74;100.00;100382.84;5044675;28;20036;-71
2022/05/25 03:50:43;;;;;;;9.90;7.75;;;;;;;7.69;100.00;100370.78;5029151;28;20048;-72
2022/05/25 03:53:12;;;;;;;10.82;7.55;;;;;;;7.73;100.00;100381.97;5031224;28;20038;-71
2022/05/25 03:55:37;;;;;;;14.63;8.57;;;;;;;7.76;100.00;100392.31;5031571;28;20043;-72
2022/05/25 03:58:03;;;;;;;9.50;7.22;;;;;;;7.69;100.00;100380.38;5029862;28;20079;-71
2022/05/25 04:00:29;;;;;;;19.38;8.27;;;;;;;7.67;100.00;100377.00;5029023;28;20132;-70
2022/05/25 04:02:57;;;;;;;13.38;7.97;;;;;;;7.74;100.00;100383.66;5037016;28;20077;-70
2022/05/25 04:05:23;;;;;;;14.15;9.63;;;;;;;7.84;100.00;100392.84;5050045;28;20031;-70
2022/05/25 04:07:48;;;;;;;14.20;9.45;;;;;;;7.79;100.00;100379.13;5052518;28;20035;-73
2022/05/25 04:10:17;;;;;;;15.30;10.05;;;;;;;7.92;100.00;100398.66;5050191;28;20016;-72
2022/05/25 04:12:43;;;;;;;21.60;8.98;;;;;;;7.98;100.00;100408.88;5050009;28;20220;-72
2022/05/25 04:15:11;;;;;;;18.88;9.77;;;;;;;8.01;100.00;100403.50;5049738;28;20093;-71
2022/05/25 04:17:37;;;;;;;19.23;10.30;;;;;;;7.96;100.00;100394.16;5048617;28;20028;-72
2022/05/25 04:20:04;;;;;;;15.35;9.10;;;;;;;8.04;100.00;100402.56;5050419;28;20031;-72
2022/05/25 04:22:32;;;;;;;19.60;9.60;;;;;;;8.02;100.00;100397.38;5050096;28;20028;-72
2022/05/25 04:25:01;;;;;;;14.13;9.43;;;;;;;8.02;100.00;100394.75;5051104;28;20032;-73
2022/05/25 04:27:27;;;;;;;12.93;9.88;;;;;;;8.13;100.00;100408.28;5050161;28;20032;-72
2022/05/25 04:29:52;;;;;;;18.35;9.25;;;;;;;8.17;100.00;100409.88;5048201;28;20038;-72
2022/05/25 04:32:18;;;;;;;14.32;8.57;;;;;;;8.13;100.00;100399.56;5050139;28;20236;-73
2022/05/25 04:34:44;;;;;;;12.98;9.05;;;;;;;8.17;100.00;100394.16;5048820;28;20135;-72
2022/05/25 04:39:53;;;;;;;16.58;10.82;;;;;;;8.28;100.00;100403.34;5049044;28;20063;-72
2022/05/25 04:42:19;;;;;;;12.40;9.00;;;;;;;7.93;100.00;100348.03;5048366;28;20244;-73
2022/05/25 04:44:44;;;;;;;15.32;9.20;;;;;;;8.36;100.00;100419.59;5046715;28;20245;-72
2022/05/25 04:47:10;;;;;;;15.57;9.30;;;;;;;8.35;100.00;100412.69;5050232;28;20059;-72
2022/05/25 04:49:35;;;;;;;14.18;8.35;;;;;;;8.37;100.00;100405.59;5048224;28;20871;-73
2022/05/25 04:52:01;;;;;;;14.55;9.05;;;;;;;8.47;100.00;100427.88;5046929;28;20020;-73
2022/05/25 04:54:27;;;;;;;21.50;9.15;;;;;;;8.43;100.00;100416.69;5046352;28;20028;-72
2022/05/25 04:59:36;;;;;;;14.65;8.20;;;;;;;8.33;100.00;100383.94;5046054;28;20118;-72
2022/05/25 05:02:01;;;;;;;13.05;8.10;;;;;;;8.61;100.00;100430.78;5046963;28;20036;-72
2022/05/25 05:04:27;;;;;;;14.10;8.25;;;;;;;8.69;100.00;100441.78;5051695;28;20845;-72
2022/05/25 05:06:53;;;;;;;13.65;8.68;;;;;;;8.76;100.00;100450.22;5045354;28;20884;-71
2022/05/25 05:09:18;;;;;;;11.95;7.80;;;;;;;8.78;100.00;100449.28;5042644;28;20945;-72
2022/05/25 05:11:44;;;;;;;22.33;8.52;;;;;;;8.77;100.00;100431.84;5067292;28;20039;-72
2022/05/25 05:14:10;;;;;;;14.02;8.45;;;;;;;8.85;100.00;100435.00;5051617;28;20070;-70
2022/05/25 05:16:35;;;;;;;15.40;9.57;;;;;;;9.00;100.00;100447.44;5052712;28;20034;-71
2022/05/25 05:19:00;;;;;;;12.45;8.07;;;;;;;8.96;100.00;100426.66;5053090;28;20477;-73
2022/05/25 05:21:26;;;;;;;17.10;9.25;;;;;;;9.03;100.00;100435.97;5037738;28;20043;-70
2022/05/25 05:23:51;;;;;;;15.30;8.88;;;;;;;9.11;100.00;100447.84;5047160;28;20031;-72
2022/05/25 05:26:16;;;;;;;12.90;7.55;;;;;;;9.19;100.00;100443.09;5047375;28;20043;-71
2022/05/25 05:28:42;;;;;;;14.23;7.53;;;;;;;9.29;100.00;100446.19;5032136;28;20971;-71
2022/05/25 05:31:08;;;;;;;17.85;8.77;;;;;;;9.27;100.00;100432.28;5032849;28;20236;-72
2022/05/25 05:33:34;;;;;;;12.30;7.22;;;;;;;9.19;100.00;100413.44;5048113;28;20086;-71
2022/05/25 05:36:05;;;;;;;8.05;6.28;;;;;;;9.14;100.00;100395.28;5032066;28;20028;-72
2022/05/25 05:38:31;;;;;;;12.00;6.75;;;;;;;9.42;100.00;100438.63;5033044;28;20926;-71
2022/05/25 05:40:57;;;;;;;16.40;7.10;;;;;;;9.43;100.00;100427.22;5033898;28;20469;-72
2022/05/25 05:43:22;;;;;;;10.90;6.10;;;;;;;9.56;100.00;100439.72;5047461;28;20090;-72
2022/05/25 05:45:47;;;;;;;9.63;5.70;;;;;;;9.53;100.00;100433.75;5031780;28;20140;-70
2022/05/25 05:48:19;;;;;;;10.07;5.72;;;;;;;9.68;100.00;100446.16;5033252;28;20968;-71
2022/05/25 05:50:47;;;;;;;8.15;5.70;;;;;;;9.77;100.00;100451.81;5048316;28;20032;-71
2022/05/25 05:53:13;;;;;;;11.18;4.57;;;;;;;9.84;100.00;100451.53;5030913;28;20025;-72
2022/05/25 05:55:40;;;;;;;10.73;5.60;;;;;;;9.91;100.00;100451.19;5048357;28;20090;-72
2022/05/25 05:58:05;;;;;;;14.82;5.57;;;;;;;9.91;100.00;100445.94;5055275;28;20024;-72
2022/05/25 06:00:31;;;;;;;12.45;4.68;;;;;;;10.03;100.00;100460.28;5045411;28;20861;-71
2022/05/25 06:02:56;;;;;;;6.57;4.80;;;;;;;10.01;100.00;100447.22;5032767;28;20094;-72
2022/05/25 06:05:22;;;;;;;9.52;4.68;;;;;;;10.10;100.00;100459.91;5031271;28;20078;-72
2022/05/25 06:07:47;;;;;;;5.80;4.38;;;;;;;10.18;100.00;100460.41;5047264;28;20827;-72
2022/05/25 06:10:13;;;;;;;14.38;4.45;;;;;;;9.89;100.00;100395.31;5039277;28;20096;-71
2022/05/25 06:12:38;;;;;;;9.88;5.05;;;;;;;10.25;100.00;100450.47;5051793;28;20028;-73
2022/05/25 06:20:33;;;;;;;6.65;4.05;;;;;;;10.53;100.00;100465.75;5031919;28;20047;-70
2022/05/25 06:22:58;;;;;;;8.18;4.75;;;;;;;10.59;100.00;100460.19;5036969;28;20131;-71
2022/05/25 06:25:24;;;;;;;8.40;4.18;;;;;;;10.58;100.00;100454.09;5032050;28;20132;-74
2022/05/25 06:27:49;;;;;;;6.22;3.90;;;;;;;10.64;100.00;100452.94;5049615;28;20107;-72
2022/05/25 06:30:15;;;;;;;9.52;5.30;;;;;;;10.50;100.00;100429.13;5030861;28;20098;-72
2022/05/25 06:32:40;;;;;;;9.38;3.97;;;;;;;10.82;100.00;100467.78;5046554;28;20036;-71
2022/05/25 06:35:06;;;;;;;7.95;4.15;;;;;;;10.76;100.00;100454.97;5051100;28;20757;-72
2022/05/25 06:37:31;;;;;;;5.72;3.42;;;;;;;10.96;100.00;100483.72;5037166;28;20075;-70
2022/05/25 06:39:56;;;;;;;6.28;3.75;;;;;;;11.02;100.00;100480.78;5031929;28;20097;-70
2022/05/25 06:42:22;;;;;;;6.25;3.65;;;;;;;11.08;100.00;100484.91;5035181;28;20877;-72
2022/05/25 06:44:47;;;;;;;6.75;3.20;;;;;;;11.07;100.00;100481.41;5050204;28;20020;-73
2022/05/25 06:47:16;;;;;;;7.35;3.13;;;;;;;11.15;100.00;100492.38;5052168;28;20039;-71
2022/05/25 06:49:42;;;;;;;7.60;3.03;;;;;;;11.08;100.00;100467.34;5050464;28;20072;-72
2022/05/25 06:52:12;;;;;;;4.97;2.60;;;;;;;11.35;100.00;100501.03;5053069;28;20024;-72
2022/05/25 06:54:38;;;;;;;4.05;2.70;;;;;;;11.42;100.00;100489.28;5050199;28;20032;-71
2022/05/25 06:57:04;;;;;;;6.35;2.70;;;;;;;11.46;100.00;100496.06;5051481;28;20131;-72
2022/05/25 06:59:29;;;;;;;8.40;2.60;;;;;;;11.39;100.00;100478.91;5051927;28;20024;-74
2022/05/25 07:01:55;;;;;;;4.38;2.80;;;;;;;11.51;100.00;100494.03;5050426;28;20039;-72
2022/05/25 07:04:21;;;;;;;9.38;3.10;;;;;;;11.63;100.00;100504.78;5050901;28;20088;-73
2022/05/25 07:06:46;;;;;;;5.25;2.30;;;;;;;11.70;100.00;100507.91;5052666;28;20127;-73
2022/05/25 07:09:12;;;;;;;5.32;2.63;;;;;;;11.68;100.00;100501.91;5050171;28;20024;-73
2022/05/25 07:11:38;;;;;;;4.32;2.60;;;;;;;11.74;100.00;100498.97;5051892;28;20024;-71
2022/05/25 07:14:04;;;;;;;3.85;2.10;;;;;;;11.94;100.00;100511.06;5051485;28;20407;-74
2022/05/25 07:16:31;;;;;;;5.93;2.38;;;;;;;11.98;100.00;100509.97;5048941;28;20064;-74
2022/05/25 07:18:57;;;;;;;3.90;1.75;;;;;;;11.99;100.00;100502.00;5049985;28;20040;-73
2022/05/25 07:21:25;;;;;;;4.05;1.98;;;;;;;12.03;100.00;100514.03;5051920;28;20031;-74
2022/05/25 07:23:51;;;;;;;5.18;1.80;;;;;;;12.05;100.00;100509.56;5045381;28;20840;-70
2022/05/25 07:26:17;;;;;;;4.45;2.00;;;;;;;12.03;100.00;100500.88;5057227;28;20213;-75
2022/05/25 07:28:46;;;;;;;6.70;2.28;;;;;;;12.13;100.00;100503.88;5050193;28;20844;-76
2022/05/25 07:31:52;;;;;;;17.83;2.38;;;;;;;12.26;100.00;100521.56;5033271;28;20106;-77
2022/05/25 07:34:43;;;;;;;6.88;2.50;;;;;;;12.36;100.00;100526.31;5050933;28;20032;-71
2022/05/25 07:37:17;;;;;;;4.20;2.00;;;;;;;12.44;100.00;100516.19;5049697;28;20135;-74
2022/05/25 07:39:49;;;;;;;5.20;2.60;;;;;;;12.41;100.00;100503.19;5051323;28;20108;-72
2022/05/25 07:42:15;;;;;;;5.95;2.30;;;;;;;12.48;100.00;100512.44;5049378;28;20036;-74
2022/05/25 07:44:55;;;;;;;3.85;1.65;;;;;;;12.61;100.00;100521.34;5048700;28;20024;-74
2022/05/25 07:47:20;;;;;;;6.82;1.85;;;;;;;12.59;100.00;100510.91;5048688;28;20819;-74
2022/05/25 07:49:46;;;;;;;5.32;2.30;;;;;;;12.71;100.00;100522.53;5032117;28;20024;-75
2022/05/25 07:52:11;;;;;;;3.83;1.80;;;;;;;12.67;100.00;100497.31;5050725;28;20063;-72
2022/05/25 07:54:40;;;;;;;4.85;1.40;;;;;;;12.91;100.00;100524.88;5050222;28;20102;-76
2022/05/25 07:57:06;;;;;;;2.83;1.45;;;;;;;12.71;100.00;100480.34;5049780;28;20020;-75
2022/05/25 07:59:31;;;;;;;6.13;1.60;;;;;;;12.94;100.00;100511.53;5032287;28;20052;-76
2022/05/25 08:07:31;;;;;;;4.15;1.25;;;;;;;13.29;100.00;100535.88;5050308;28;20047;-73
2022/05/25 08:10:03;;;;;;;3.95;1.58;;;;;;;13.26;100.00;100525.50;5049434;28;20032;-77
2022/05/25 08:12:30;;;;;;;3.28;1.15;;;;;;;13.41;100.00;100534.31;5051883;28;20797;-76
2022/05/25 08:14:55;;;;;;;3.45;1.38;;;;;;;13.45;100.00;100546.38;5049391;28;20024;-73
2022/05/25 08:17:21;;;;;;;4.72;1.00;;;;;;;13.49;100.00;100547.88;5032885;28;20032;-74
2022/05/25 08:19:46;;;;;;;4.15;1.50;;;;;;;13.43;100.00;100532.41;5050273;28;20035;-74
2022/05/25 08:22:11;;;;;;;4.05;1.52;;;;;;;13.50;100.00;100528.47;5050701;28;20036;-74
2022/05/25 08:24:37;;;;;;;4.20;1.40;;;;;;;13.61;100.00;100545.38;5067739;28;20028;-73
2022/05/25 08:27:03;;;;;;;2.10;1.05;;;;;;;13.56;100.00;100549.22;5050970;28;20028;-75
2022/05/25 08:29:28;;;;;;;6.97;1.58;;;;;;;13.57;100.00;100540.38;5051022;28;20053;-74
2022/05/25 08:31:55;;;;;;;5.10;1.42;;;;;;;13.72;100.00;100539.44;5051128;28;20028;-75
2022/05/25 08:34:28;;;;;;;15.02;1.65;;;;;;;13.86;100.00;100543.91;5049559;28;20226;-73
2022/05/25 08:36:54;;;;;;;4.53;1.42;;;;;;;13.93;100.00;100532.84;5050790;28;20085;-74
2022/05/25 08:39:19;;;;;;;5.63;1.33;;;;;;;14.08;100.00;100533.69;5050912;28;20764;-73
2022/05/25 08:41:46;;;;;;;2.30;0.80;;;;;;;14.09;100.00;100533.56;5050393;28;20944;-74
2022/05/25 08:44:12;;;;;;;3.33;1.60;;;;;;;14.04;100.00;100509.25;5051415;28;20036;-73
2022/05/25 08:46:38;;;;;;;2.90;1.00;;;;;;;14.27;100.00;100516.56;5049983;28;20028;-74
2022/05/25 08:49:10;;;;;;;2.00;0.85;;;;;;;14.52;100.00;100528.25;5051714;28;20028;-75
2022/05/25 08:52:04;;;;;;;2.25;0.90;;;;;;;14.59;100.00;100527.78;5048554;28;20032;-73
2022/05/25 08:54:31;;;;;;;2.40;1.27;;;;;;;14.28;100.00;100467.19;5048275;28;20109;-77
2022/05/25 08:57:02;;;;;;;5.97;0.90;;;;;;;14.71;100.00;100518.19;5037237;28;20326;-73
2022/05/25 08:59:47;;;;;;;4.28;1.23;;;;;;;14.86;100.00;100526.91;5031457;28;20047;-77
2022/05/25 09:02:32;;;;;;;6.28;1.20;;;;;;;14.88;100.00;100517.91;5045865;28;20042;-77
2022/05/25 09:05:29;;;;;;;3.75;1.45;;;;;;;14.96;100.00;100523.56;5029524;28;20093;-77
2022/05/25 09:08:26;;;;;;;4.88;1.70;;;;;;;15.12;100.00;100508.34;5030567;28;20039;-77
2022/05/25 09:10:56;;;;;;;6.43;1.55;;;;;;;15.44;100.00;100542.41;5045785;28;20109;-76
2022/05/25 09:13:28;;;;;;;3.55;1.10;;;;;;;15.44;100.00;100534.47;5030385;28;20025;-74
2022/05/25 09:18:40;;;;;;;;;;;;;;;15.61;100.00;100528.91;5048506;28;20074;-76
2022/05/25 09:21:06;;;;;;;2.42;0.90;;;;;;;15.58;100.00;100505.28;5046805;28;19912;-77
2022/05/25 09:23:32;;;;;;;3.42;1.25;;;;;;;15.74;100.00;100520.00;5044301;28;20197;-74
2022/05/25 09:25:58;;;;;;;3.80;1.15;;;;;;;15.34;100.00;100490.06;5049887;28;20037;-76
2022/05/25 09:28:42;;;;;;;3.08;1.35;;;;;;;15.32;100.00;100517.59;5046092;28;20805;-76
2022/05/25 09:31:12;;;;;;;3.65;1.35;;;;;;;15.46;100.00;100537.84;5043405;28;20816;-76
2022/05/25 09:33:51;;;;;;;2.47;1.05;;;;;;;15.42;100.00;100542.50;5042839;28;20039;-73
2022/05/25 09:36:25;;;;;;;4.70;1.27;;;;;;;15.46;100.00;100546.63;5081145;28;20062;-77
2022/05/25 09:39:20;;;;;;;2.42;1.08;;;;;;;15.21;100.00;100528.91;5032220;28;20039;-77
2022/05/25 09:41:46;;;;;;;3.00;1.10;;;;;;;15.30;100.00;100561.88;5035057;28;20036;-76
2022/05/25 09:44:15;;;;;;;3.08;0.98;;;;;;;15.22;100.00;100549.13;5053366;28;20498;-77
2022/05/25 09:46:45;;;;;;;3.88;1.08;;;;;;;15.27;100.00;100523.22;5049813;28;20028;-77
2022/05/25 09:49:24;;;;;;;2.53;1.10;;;;;;;15.48;100.00;100549.19;5047276;28;20028;-78
2022/05/25 09:51:51;;;;;;;3.30;0.90;;;;;;;15.44;100.00;100545.91;5045576;28;20036;-73
2022/05/25 09:54:41;;;;;;;5.78;0.90;;;;;;;15.65;100.00;100540.94;5052101;28;20264;-76
2022/05/25 09:57:07;;;;;;;2.58;1.00;;;;;;;16.00;100.00;100542.00;5045436;28;20028;-75
2022/05/25 10:00:03;;;;;;;7.35;1.27;;;;;;;16.27;100.00;100541.84;5016913;28;20063;-74
2022/05/25 10:02:48;;;;;;;;;;;;;;;16.60;100.00;100542.09;5029615;28;20920;-74
2022/05/25 10:05:23;;;;;;;5.50;0.63;;;;;;;16.57;100.00;100526.41;5059494;28;19971;-74
2022/05/25 10:08:15;;;;;;;2.42;0.90;;;;;;;16.00;100.00;100486.34;5046332;28;20024;-74
2022/05/25 10:10:59;;;;;;;3.47;1.10;;;;;;;16.05;100.00;100528.44;5038107;28;20086;-76
2022/05/25 10:13:30;;;;;;;1.40;0.50;;;;;;;15.92;100.00;100525.78;5034923;28;20036;-73
2022/05/25 10:15:56;;;;;;;3.47;0.80;;;;;;;16.21;100.00;100550.25;5053249;28;20032;-73
2022/05/25 10:18:42;;;;;;;2.38;1.00;;;;;;;16.49;100.00;100541.19;5051662;28;20898;-72
2022/05/25 10:21:13;;;;;;;4.07;0.60;;;;;;;16.56;100.00;100513.28;5052492;28;20047;-71
2022/05/25 10:23:42;;;;;;;3.25;0.73;;;;;;;16.92;100.00;100529.13;5050536;28;20183;-73
2022/05/25 10:26:17;;;;;;;1.88;0.60;;;;;;;17.09;100.00;100541.16;5021791;28;20032;-74
2022/05/25 10:28:47;;;;;;;10.73;1.00;;;;;;;16.93;100.00;100553.88;5030999;28;20137;-73
2022/05/25 10:37:08;;;;;;;2.55;0.77;;;;;;;16.26;100.00;100559.56;5034861;28;20047;-73
2022/05/25 10:39:44;;;;;;;3.38;0.90;;;;;;;16.00;100.00;100520.81;5053394;28;20033;-74
2022/05/25 10:42:45;;;;;;;3.38;0.85;;;;;;;16.17;100.00;100554.94;5042650;28;20524;-75
2022/05/25 10:45:13;;;;;;;1.63;0.60;;;;;;;16.03;98.64;100548.91;5047792;28;20565;-72
2022/05/25 10:47:54;;;;;;;1.67;0.50;;;;;;;15.93;100.00;100554.00;5031900;28;20034;-75
2022/05/25 10:50:30;;;;;;;2.50;0.70;;;;;;;15.95;100.00;100560.06;5039501;28;20135;-71
2022/05/25 10:53:36;;;;;;;1.58;0.68;;;;;;;16.07;100.00;100550.38;5036160;28;20879;-73
2022/05/25 10:56:26;;;;;;;1.98;0.77;;;;;;;16.42;100.00;100551.38;5052932;28;20054;-72
2022/05/25 10:59:03;;;;;;;2.38;0.75;;;;;;;16.54;100.00;100546.97;5078433;28;20043;-73
2022/05/25 11:01:55;;;;;;;2.33;0.88;;;;;;;16.39;100.00;100553.41;5044102;28;20131;-72
2022/05/25 11:04:50;;;;;;;4.88;0.95;;;;;;;16.36;100.00;100543.84;5061091;28;20039;-73
2022/05/25 11:07:34;;;;;;;1.70;0.70;;;;;;;16.74;97.87;100552.56;5078007;28;20032;-68
2022/05/25 11:10:44;;;;;;;4.07;0.60;;;;;;;16.72;93.24;100540.38;5092953;28;20036;-75
2022/05/25 11:13:41;;;;;;;7.57;0.95;;;;;;;16.76;93.36;100552.47;5066447;28;20063;-72
2022/05/25 11:16:19;;;;;;;2.40;0.77;;;;;;;17.04;89.06;100552.13;5071442;28;20051;-71
2022/05/25 11:19:04;;;;;;;2.50;0.70;;;;;;;17.42;87.15;100545.72;5072601;28;20036;-70
2022/05/25 11:21:36;;;;;;;2.50;1.00;;;;;;;17.69;91.09;100543.66;5072154;28;20085;-72
2022/05/25 11:24:25;;;;;;;2.58;0.88;;;;;;;17.68;84.35;100512.69;5087796;28;20036;-71
2022/05/25 11:26:53;;;;;;;5.55;1.02;;;;;;;17.83;82.41;100535.44;5088841;28;20024;-72
2022/05/25 11:29:51;;;;;;;3.13;0.73;;;;;;;17.51;80.16;100539.69;5088702;28;20028;-71
2022/05/25 11:32:32;;;;;;;13.40;0.80;;;;;;;17.21;81.45;100550.84;5064622;28;20056;-72
2022/05/25 11:35:11;;;;;;;3.05;1.00;;;;;;;17.00;85.13;100553.28;5088768;28;20035;-72
2022/05/25 11:37:53;;;;;;;1.70;0.60;;;;;;;16.96;84.60;100559.81;5082987;28;20214;-70
2022/05/25 11:40:46;;;;;;;1.15;0.57;;;;;;;17.74;82.71;100547.63;5092005;28;20119;-71
2022/05/25 11:43:51;;;;;;;8.35;0.88;;;;;;;19.01;78.01;100535.66;5071018;28;20521;-73
2022/05/25 11:46:19;;;;;;;;;;;;;;;18.92;74.34;100541.75;5071191;28;20556;-73
2022/05/25 11:49:04;;;;;;;3.80;0.60;;;;;;;19.59;80.92;100510.31;5073008;28;19919;-74
2022/05/25 11:51:52;;;;;;;4.30;0.55;;;;;;;20.73;71.88;100525.06;5071636;28;20047;-69
2022/05/25 11:54:32;;;;;;;1.45;0.65;;;;;;;21.45;71.52;100522.00;5072440;28;20399;-73
2022/05/25 11:57:08;;;;;;;3.85;1.00;;;;;;;22.49;80.12;100503.03;5074962;28;20089;-73
2022/05/25 12:00:26;;;;;;;11.45;1.00;;;;;;;23.19;64.92;100529.88;5090347;28;20032;-73
2022/05/25 12:02:54;;;;;;;3.50;1.23;;;;;;;23.31;65.29;100517.09;5062898;28;20047;-71
2022/05/25 12:05:28;;;;;;;4.82;1.00;;;;;;;23.49;62.81;100520.59;5072835;28;20032;-71
2022/05/25 12:08:12;;;;;;;4.38;1.30;;;;;;;23.91;62.67;100526.91;5071328;28;20036;-73
2022/05/25 12:10:39;;;;;;;5.35;1.13;;;;;;;23.58;59.78;100498.22;5073634;28;20028;-72